Elizabeth City Regional Airport & Coast Guard Air Station Elizabeth City US
ICAO: KECG
IATA: ECG
Category: Medium
Scheduled Services: No

Elevation: 12 ft
TransAlt. 18000 ft.

Airport Communications:
NORFOLK APP/DEP:119.55
AIR:34.5
ASOS:118.525
CTAF:120.5
GND:121.9
TWR:120.5
UNICOM:122.95

KECG Zoom In..

Runways:

(A) RW 01 length 4518 ft width 150 ft
---- / hdg 9

(B) RW 10 length 7219 ft width 150 ft
ILS 111.35 / hdg 99

(C) RW 19 length 4518 ft width 150 ft
---- / hdg 189

(D) RW 28 length 7219 ft width 150 ft
---- / hdg 279

Location; KECG
Day. 22 / Time. 23.54 Zulu
* Altimeter: 30.13
* Temperature: 14° c. 57.2°f.
* Wind from: 170° Speed 06 kn.
Dewpoint: 11° c.
Visibility: 10 Statute Miles.
Clouds: Broken 12000 ft.

KECG 222354Z AUTO 17006KT 10SM BKN120 14/11 A3013 RMK AO2 SLP201 T01390111 10172 20094 55005


Wind From 170°
Speed 06 kn.

YouTube Music Video
 
jpsmedia.com for Web Design  worldairports.se 2018   terms of use